createdAt,value
2018-06-02T00:02:18.394Z,3.70
2018-06-02T00:04:48.409Z,3.93
2018-06-02T00:07:18.488Z,3.60
2018-06-02T00:09:47.773Z,3.43
2018-06-02T00:12:17.033Z,3.73
2018-06-02T00:14:46.299Z,3.37
2018-06-02T00:17:15.561Z,3.80
2018-06-02T00:19:44.846Z,3.40
2018-06-02T00:22:14.868Z,3.30
2018-06-02T00:24:44.077Z,4.07
2018-06-02T00:27:13.373Z,3.50
2018-06-02T00:29:42.673Z,3.30
2018-06-02T00:32:11.981Z,3.50
2018-06-02T00:34:41.258Z,3.07
2018-06-02T00:37:10.566Z,3.50
2018-06-02T00:39:39.866Z,4.30
2018-06-02T00:42:09.193Z,4.50
2018-06-02T00:44:38.527Z,3.80
2018-06-02T00:47:09.413Z,3.80
2018-06-02T00:49:38.722Z,3.70
2018-06-02T00:52:08.802Z,3.97
2018-06-02T00:54:56.611Z,3.97
2018-06-02T00:57:25.951Z,3.10
2018-06-02T00:59:55.169Z,4.73
2018-06-02T01:02:24.431Z,3.80
2018-06-02T01:04:53.785Z,3.70
2018-06-02T01:07:23.155Z,3.43
2018-06-02T01:09:52.447Z,3.63
2018-06-02T01:12:22.503Z,3.33
2018-06-02T01:14:51.821Z,3.60
2018-06-02T01:17:21.084Z,3.93
2018-06-02T01:19:50.655Z,4.23
2018-06-02T01:22:20.713Z,3.10
2018-06-02T01:24:49.996Z,3.80
2018-06-02T01:27:19.380Z,4.80
2018-06-02T01:29:49.397Z,4.77
2018-06-02T01:32:19.477Z,4.97
2018-06-02T01:34:48.840Z,4.30
2018-06-02T01:37:18.861Z,4.00
2018-06-02T01:39:48.144Z,4.20
2018-06-02T01:42:18.175Z,3.57
2018-06-02T01:44:47.424Z,3.70
2018-06-02T01:47:16.737Z,4.63
2018-06-02T01:49:46.770Z,4.37
2018-06-02T01:52:17.338Z,4.63
2018-06-02T01:54:46.632Z,4.40
2018-06-02T01:57:16.033Z,4.00
2018-06-02T01:59:45.311Z,3.53
2018-06-02T02:02:15.333Z,4.50
2018-06-02T02:04:45.404Z,4.53
2018-06-02T02:07:14.665Z,4.00
2018-06-02T02:09:43.944Z,4.60
2018-06-02T02:12:13.978Z,4.57
2018-06-02T02:14:43.256Z,4.40
2018-06-02T02:17:13.345Z,4.37
2018-06-02T02:19:42.614Z,4.77
2018-06-02T02:22:11.883Z,3.57
2018-06-02T02:24:41.907Z,3.70
2018-06-02T02:27:11.162Z,3.97
2018-06-02T02:29:40.432Z,3.77
2018-06-02T02:32:09.651Z,3.63
2018-06-02T02:34:39.718Z,4.23
2018-06-02T02:37:09.702Z,4.07
2018-06-02T02:39:39.019Z,4.90
2018-06-02T02:42:09.046Z,4.90
2018-06-02T02:44:39.023Z,4.67
2018-06-02T02:47:09.099Z,4.47
2018-06-02T02:49:38.389Z,4.67
2018-06-02T02:52:08.410Z,5.33
2018-06-02T02:54:38.441Z,4.70
2018-06-02T02:57:07.725Z,4.00
2018-06-02T02:59:37.739Z,4.40
2018-06-02T03:02:07.763Z,4.27
2018-06-02T03:04:37.029Z,4.10
2018-06-02T03:07:07.282Z,4.63
2018-06-02T03:09:37.305Z,4.97
2018-06-02T03:12:06.581Z,5.33
2018-06-02T03:14:35.918Z,4.53
2018-06-02T03:17:05.192Z,4.33
2018-06-02T03:19:35.220Z,6.10
2018-06-02T03:22:05.244Z,5.10
2018-06-02T03:24:34.581Z,5.13
2018-06-02T03:27:03.853Z,5.60
2018-06-02T03:29:33.131Z,3.93
2018-06-02T03:32:03.169Z,4.73
2018-06-02T03:34:32.446Z,5.00
2018-06-02T03:37:02.499Z,4.60
2018-06-02T03:39:31.767Z,5.30
2018-06-02T03:42:01.801Z,4.80
2018-06-02T03:44:31.101Z,4.80
2018-06-02T03:47:00.362Z,5.30
2018-06-02T03:49:29.620Z,5.10
2018-06-02T03:51:58.898Z,5.20
2018-06-02T03:54:28.185Z,4.73
2018-06-02T03:56:58.236Z,4.80
2018-06-02T03:59:27.543Z,5.83
2018-06-02T04:01:56.761Z,5.03
2018-06-02T04:04:26.841Z,4.93
2018-06-02T04:06:56.143Z,5.03
2018-06-02T04:09:25.439Z,6.13
2018-06-02T04:11:54.723Z,6.00
2018-06-02T04:14:24.021Z,5.97
2018-06-02T04:16:54.078Z,6.23
2018-06-02T04:19:24.211Z,5.30
2018-06-02T04:21:53.467Z,5.50
2018-06-02T04:24:22.848Z,5.70
2018-06-02T04:26:52.912Z,6.03
2018-06-02T04:29:22.175Z,5.10
2018-06-02T04:31:52.251Z,5.30
2018-06-02T04:34:21.603Z,5.47
2018-06-02T04:36:51.632Z,5.53
2018-06-02T04:39:20.914Z,5.37
2018-06-02T04:41:51.034Z,6.00
2018-06-02T04:44:21.060Z,6.00
2018-06-02T04:46:51.078Z,6.40
2018-06-02T04:49:20.412Z,5.80
2018-06-02T04:51:49.661Z,5.47
2018-06-02T04:54:19.717Z,5.60
2018-06-02T04:56:49.017Z,5.30
2018-06-02T04:59:18.275Z,4.83
2018-06-02T05:01:48.303Z,4.90
2018-06-02T05:04:18.428Z,5.70
2018-06-02T05:06:47.715Z,4.40
2018-06-02T05:09:17.756Z,4.00
2018-06-02T05:11:47.847Z,4.10
2018-06-02T05:14:21.344Z,4.70
2018-06-02T05:16:52.203Z,5.03
2018-06-02T05:19:21.468Z,5.17
2018-06-02T05:21:50.771Z,5.63
2018-06-02T05:24:20.813Z,5.40
2018-06-02T05:26:50.837Z,5.77
2018-06-02T05:29:20.890Z,5.77
2018-06-02T05:31:50.303Z,5.37
2018-06-02T05:34:20.424Z,5.67
2018-06-02T05:36:49.711Z,5.73
2018-06-02T05:39:18.993Z,6.20
2018-06-02T05:41:48.268Z,7.07
2018-06-02T05:44:18.293Z,6.13
2018-06-02T05:46:48.312Z,5.17
2018-06-02T05:49:18.342Z,5.40
2018-06-02T05:51:47.642Z,5.97
2018-06-02T05:54:16.913Z,5.90
2018-06-02T05:56:46.196Z,5.77
2018-06-02T05:59:16.985Z,5.87
2018-06-02T06:01:46.246Z,5.60
2018-06-02T06:04:15.501Z,7.00
2018-06-02T06:06:44.770Z,5.50
2018-06-02T06:09:14.777Z,7.07
2018-06-02T06:11:44.921Z,6.60
2018-06-02T06:14:14.202Z,5.93
2018-06-02T06:16:43.512Z,6.60
2018-06-02T06:19:12.766Z,6.30
2018-06-02T06:21:43.554Z,5.83
2018-06-02T06:24:13.106Z,6.13
2018-06-02T06:26:43.885Z,5.70
2018-06-02T06:29:13.172Z,6.33
2018-06-02T06:31:43.205Z,5.70
2018-06-02T06:34:12.473Z,5.83
2018-06-02T06:36:42.530Z,6.10
2018-06-02T06:39:11.841Z,6.20
2018-06-02T06:41:41.141Z,4.97
2018-06-02T06:44:10.398Z,5.43
2018-06-02T06:46:40.549Z,5.60
2018-06-02T06:49:10.732Z,5.03
2018-06-02T06:51:40.007Z,5.93
2018-06-02T06:54:09.276Z,5.00
2018-06-02T06:56:38.732Z,4.70
2018-06-02T06:59:08.263Z,4.37
2018-06-02T07:01:38.311Z,4.50
2018-06-02T07:04:07.593Z,4.37
2018-06-02T07:06:37.619Z,4.63
2018-06-02T07:09:06.880Z,5.50
2018-06-02T07:11:36.796Z,4.43
2018-06-02T07:14:06.122Z,4.40
2018-06-02T07:16:36.175Z,4.03
2018-06-02T07:19:05.422Z,4.23
2018-06-02T07:21:35.474Z,5.50
2018-06-02T07:24:04.729Z,4.40
2018-06-02T07:26:34.024Z,5.40
2018-06-02T07:29:03.272Z,5.60
2018-06-02T07:31:32.555Z,5.43
2018-06-02T07:34:02.585Z,5.03
2018-06-02T07:36:31.854Z,5.47
2018-06-02T07:39:01.903Z,4.77
2018-06-02T07:41:31.298Z,5.60
2018-06-02T07:44:00.558Z,5.00
2018-06-02T07:46:29.845Z,5.47
2018-06-02T07:48:59.115Z,5.50
2018-06-02T07:51:28.364Z,5.20
2018-06-02T07:53:58.413Z,6.00
2018-06-02T07:56:27.715Z,6.73
2018-06-02T07:58:56.981Z,5.30
2018-06-02T08:01:26.269Z,6.20
2018-06-02T08:03:59.458Z,5.13
2018-06-02T08:06:28.725Z,5.63
2018-06-02T08:08:58.009Z,4.90
2018-06-02T08:11:27.389Z,5.40
2018-06-02T08:13:57.436Z,6.33
2018-06-02T08:16:26.723Z,5.87
2018-06-02T08:18:56.190Z,6.87
2018-06-02T08:21:25.452Z,5.10
2018-06-02T08:23:54.737Z,4.10
2018-06-02T08:26:24.000Z,4.37
2018-06-02T08:28:53.286Z,4.50
2018-06-02T08:31:22.631Z,3.53
2018-06-02T08:33:52.670Z,3.07
2018-06-02T08:36:21.952Z,3.83
2018-06-02T08:38:51.295Z,2.87
2018-06-02T08:41:20.569Z,2.70
2018-06-02T08:43:49.842Z,2.87
2018-06-02T08:46:19.127Z,2.93
2018-06-02T08:48:48.719Z,3.20
2018-06-02T08:51:18.001Z,3.10
2018-06-02T08:53:47.277Z,3.20
2018-06-02T08:56:16.825Z,2.60
2018-06-02T08:58:46.098Z,3.00
2018-06-02T09:01:15.368Z,2.43
2018-06-02T09:03:45.463Z,2.30
2018-06-02T09:06:15.506Z,2.40
2018-06-02T09:08:44.755Z,2.20
2018-06-02T09:11:14.809Z,2.33
2018-06-02T09:13:44.823Z,3.00
2018-06-02T09:16:14.155Z,2.87
2018-06-02T09:18:43.432Z,2.60
2018-06-02T09:21:13.521Z,2.90
2018-06-02T09:23:42.817Z,2.60
2018-06-02T09:26:12.049Z,2.60
2018-06-02T09:28:41.330Z,2.07
2018-06-02T09:31:11.371Z,2.20
2018-06-02T09:33:40.656Z,2.87
2018-06-02T09:36:09.935Z,2.30
2018-06-02T09:38:39.875Z,2.03
2018-06-02T09:41:14.075Z,2.17
2018-06-02T09:43:43.405Z,2.20
2018-06-02T09:46:13.500Z,1.80
2018-06-02T09:48:43.545Z,1.50
2018-06-02T09:51:12.803Z,2.23
2018-06-02T09:53:42.096Z,2.60
2018-06-02T09:56:11.388Z,1.57
2018-06-02T09:58:40.629Z,1.70
2018-06-02T10:01:10.677Z,1.73
2018-06-02T10:03:39.922Z,1.73
2018-06-02T10:06:09.369Z,2.20
2018-06-02T10:08:38.662Z,1.80
2018-06-02T10:11:08.689Z,2.07
2018-06-02T10:13:37.943Z,1.50
2018-06-02T10:16:07.225Z,2.10
2018-06-02T10:18:36.567Z,2.20
2018-06-02T10:21:06.604Z,2.37
2018-06-02T10:23:35.894Z,2.53
2018-06-02T10:26:05.212Z,2.77
2018-06-02T10:28:34.541Z,2.50
2018-06-02T10:31:03.825Z,2.33
2018-06-02T10:33:33.089Z,2.20
2018-06-02T10:36:03.116Z,2.00
2018-06-02T10:38:32.490Z,2.43
2018-06-02T10:41:01.750Z,1.80
2018-06-02T10:43:31.009Z,1.90
2018-06-02T10:46:01.129Z,2.10
2018-06-02T10:48:31.198Z,2.00
2018-06-02T10:51:01.257Z,1.60
2018-06-02T10:53:31.418Z,2.20
2018-06-02T10:56:00.717Z,2.07
2018-06-02T10:58:29.991Z,1.50
2018-06-02T11:01:00.132Z,1.80
2018-06-02T11:03:29.426Z,2.33
2018-06-02T11:05:58.714Z,1.70
2018-06-02T11:08:28.749Z,1.50
2018-06-02T11:10:58.051Z,1.30
2018-06-02T11:13:27.340Z,1.63
2018-06-02T11:15:56.612Z,1.77
2018-06-02T11:18:25.881Z,1.73
2018-06-02T11:20:55.186Z,1.60
2018-06-02T11:23:24.475Z,1.87
2018-06-02T11:25:53.823Z,1.73
2018-06-02T11:28:23.863Z,1.97
2018-06-02T11:30:53.104Z,1.73
2018-06-02T11:33:22.393Z,1.70
2018-06-02T11:35:51.713Z,1.30
2018-06-02T11:38:21.047Z,2.27
2018-06-02T11:40:51.296Z,1.80
2018-06-02T11:43:20.555Z,2.03
2018-06-02T11:45:49.811Z,1.90
2018-06-02T11:48:19.082Z,1.73
2018-06-02T11:50:48.366Z,1.93
2018-06-02T11:53:18.477Z,2.20
2018-06-02T11:55:48.554Z,1.80
2018-06-02T11:58:17.813Z,2.37
2018-06-02T12:00:47.812Z,1.43
2018-06-02T12:03:17.124Z,1.20
2018-06-02T12:05:47.167Z,1.73
2018-06-02T12:08:16.433Z,1.37
2018-06-02T12:10:46.476Z,2.10
2018-06-02T12:13:15.759Z,2.10
2018-06-02T12:15:45.775Z,2.00
2018-06-02T12:18:15.058Z,1.60
2018-06-02T12:20:44.339Z,1.63
2018-06-02T12:23:13.726Z,1.90
2018-06-02T12:25:43.007Z,2.30
2018-06-02T12:28:12.311Z,2.43
2018-06-02T12:30:42.304Z,1.57
2018-06-02T12:33:12.331Z,2.07
2018-06-02T12:35:41.614Z,1.93
2018-06-02T12:38:11.660Z,1.57
2018-06-02T12:40:40.933Z,1.30
2018-06-02T12:43:10.961Z,2.30
2018-06-02T12:45:40.266Z,1.90
2018-06-02T12:48:10.319Z,2.17
2018-06-02T12:50:39.577Z,2.40
2018-06-02T12:53:08.891Z,1.60
2018-06-02T12:55:38.218Z,1.67
2018-06-02T12:58:07.504Z,2.13
2018-06-02T13:00:36.804Z,2.33
2018-06-02T13:03:06.086Z,1.53
2018-06-02T13:05:35.385Z,1.53
2018-06-02T13:08:04.657Z,2.37
2018-06-02T13:10:34.698Z,1.67
2018-06-02T13:13:04.724Z,1.50
2018-06-02T13:15:34.013Z,1.50
2018-06-02T13:18:04.055Z,1.60
2018-06-02T13:20:33.329Z,1.97
2018-06-02T13:23:03.353Z,1.37
2018-06-02T13:25:32.627Z,2.23
2018-06-02T13:28:02.673Z,1.47
2018-06-02T13:30:31.962Z,1.40
2018-06-02T13:33:01.289Z,1.83
2018-06-02T13:35:30.578Z,1.63
2018-06-02T13:37:59.852Z,1.57
2018-06-02T13:40:29.904Z,1.50
2018-06-02T13:42:59.217Z,1.47
2018-06-02T13:45:28.574Z,1.70
2018-06-02T13:47:58.574Z,2.33
2018-06-02T13:50:27.903Z,1.53
2018-06-02T13:52:58.217Z,1.60
2018-06-02T13:55:27.464Z,2.00
2018-06-02T13:57:56.742Z,1.70
2018-06-02T14:00:26.016Z,1.70
2018-06-02T14:02:56.052Z,1.67
2018-06-02T14:05:25.317Z,1.73
2018-06-02T14:07:56.049Z,1.70
2018-06-02T14:10:25.319Z,1.77
2018-06-02T14:12:54.577Z,1.50
2018-06-02T14:15:23.968Z,1.90
2018-06-02T14:17:54.008Z,1.70
2018-06-02T14:20:23.277Z,1.67
2018-06-02T14:22:52.558Z,1.43
2018-06-02T14:25:21.817Z,1.67
2018-06-02T14:27:51.085Z,2.23
2018-06-02T14:30:21.119Z,1.70
2018-06-02T14:32:50.421Z,2.40
2018-06-02T14:35:19.713Z,1.30
2018-06-02T14:37:49.745Z,1.63
2018-06-02T14:40:19.039Z,1.50
2018-06-02T14:42:48.327Z,1.90
2018-06-02T14:45:18.336Z,1.80
2018-06-02T14:47:48.422Z,1.73
2018-06-02T14:50:17.723Z,1.73
2018-06-02T14:52:46.994Z,1.53
2018-06-02T14:55:16.372Z,1.53
2018-06-02T14:57:45.544Z,1.50
2018-06-02T15:00:14.821Z,1.20
2018-06-02T15:02:44.093Z,1.67
2018-06-02T15:05:13.326Z,1.30
2018-06-02T15:07:43.418Z,2.00
2018-06-02T15:10:12.807Z,1.90
2018-06-02T15:12:42.140Z,2.20
2018-06-02T15:15:11.448Z,1.80
2018-06-02T15:17:40.760Z,1.80
2018-06-02T15:20:10.085Z,1.90
2018-06-02T15:22:39.456Z,1.70
2018-06-02T15:25:08.759Z,2.20
2018-06-02T15:27:38.125Z,2.13
2018-06-02T15:30:08.012Z,1.73
2018-06-02T15:32:38.260Z,1.70
2018-06-02T15:35:08.479Z,1.90
2018-06-02T15:37:37.759Z,1.57
2018-06-02T15:40:07.014Z,2.20
2018-06-02T15:42:36.343Z,2.37
2018-06-02T15:45:06.382Z,1.73
2018-06-02T15:47:36.409Z,1.90
2018-06-02T15:50:05.683Z,2.10
2018-06-02T15:52:35.954Z,2.27
2018-06-02T15:55:05.233Z,1.70
2018-06-02T15:57:34.497Z,1.70
2018-06-02T16:00:04.541Z,1.90
2018-06-02T16:02:33.811Z,2.00
2018-06-02T16:05:03.069Z,1.73
2018-06-02T16:07:32.369Z,1.53
2018-06-02T16:10:01.635Z,1.93
2018-06-02T16:12:31.645Z,1.70
2018-06-02T16:15:00.938Z,1.93
2018-06-02T16:17:30.997Z,1.63
2018-06-02T16:20:00.223Z,2.13
2018-06-02T16:22:29.530Z,1.63
2018-06-02T16:24:58.844Z,1.70
2018-06-02T16:27:28.119Z,1.73
2018-06-02T16:29:57.389Z,1.50
2018-06-02T16:32:26.684Z,1.80
2018-06-02T16:34:55.930Z,2.00
2018-06-02T16:37:26.754Z,1.60
2018-06-02T16:39:56.078Z,1.63
2018-06-02T16:42:26.185Z,2.40
2018-06-02T16:44:55.462Z,1.90
2018-06-02T16:47:24.742Z,1.90
2018-06-02T16:49:54.061Z,1.77
2018-06-02T16:52:23.324Z,1.70
2018-06-02T16:54:52.669Z,1.83
2018-06-02T16:57:21.932Z,1.90
2018-06-02T16:59:51.232Z,1.50
2018-06-02T17:02:20.500Z,5.53
2018-06-02T17:04:49.836Z,2.90
2018-06-02T17:07:19.856Z,1.77
2018-06-02T17:09:49.186Z,2.23
2018-06-02T17:12:18.486Z,2.23
2018-06-02T17:17:23.399Z,2.67
2018-06-02T17:19:52.702Z,2.30
2018-06-02T17:22:22.732Z,3.13
2018-06-02T17:24:52.014Z,2.33
2018-06-02T17:27:22.057Z,3.00
2018-06-02T17:29:51.357Z,5.87
2018-06-02T17:32:20.656Z,2.43
2018-06-02T17:34:49.932Z,2.53
2018-06-02T17:37:19.239Z,4.67
2018-06-02T17:39:48.571Z,3.20
2018-06-02T17:42:18.057Z,2.60
2018-06-02T17:44:47.335Z,5.30
2018-06-02T17:47:16.575Z,4.47
2018-06-02T17:49:45.904Z,3.23
2018-06-02T17:52:15.244Z,3.07
2018-06-02T17:54:44.511Z,2.30
2018-06-02T17:57:14.656Z,3.57
2018-06-02T17:59:44.681Z,4.63
2018-06-02T18:02:13.949Z,2.57
2018-06-02T18:04:43.332Z,2.53
2018-06-02T18:07:12.765Z,4.13
2018-06-02T18:09:42.035Z,2.60
2018-06-02T18:12:12.827Z,3.03
2018-06-02T18:14:42.315Z,5.63
2018-06-02T18:17:11.591Z,3.53
2018-06-02T18:19:40.874Z,4.87
2018-06-02T18:22:11.708Z,3.20
2018-06-02T18:24:40.971Z,2.47
2018-06-02T18:27:10.365Z,5.07
2018-06-02T18:29:39.671Z,4.00
2018-06-02T18:32:09.736Z,4.13
2018-06-02T18:34:39.030Z,2.00
2018-06-02T18:37:08.361Z,2.57
2018-06-02T18:39:37.580Z,2.03
2018-06-02T18:42:06.856Z,2.10
2018-06-02T18:44:36.167Z,2.30
2018-06-02T18:47:06.207Z,2.40
2018-06-02T18:49:35.608Z,2.37
2018-06-02T18:52:05.801Z,2.87
2018-06-02T18:54:35.109Z,2.77
2018-06-02T18:57:05.408Z,3.00
2018-06-02T18:59:34.713Z,2.50
2018-06-02T19:02:03.984Z,2.27
2018-06-02T19:04:33.354Z,3.37
2018-06-02T19:07:02.661Z,3.20
2018-06-02T19:09:31.922Z,3.53
2018-06-02T19:12:01.240Z,3.40
2018-06-02T19:14:31.324Z,2.50
2018-06-02T19:17:00.652Z,2.90
2018-06-02T19:19:29.935Z,2.93
2018-06-02T19:21:59.222Z,4.27
2018-06-02T19:24:28.511Z,3.50
2018-06-02T19:26:57.825Z,3.30
2018-06-02T19:29:27.083Z,2.80
2018-06-02T19:31:56.399Z,3.77
2018-06-02T19:34:25.734Z,4.27
2018-06-02T19:36:55.063Z,3.93
2018-06-02T19:39:25.095Z,5.03
2018-06-02T19:41:54.430Z,3.13
2018-06-02T19:44:24.514Z,2.90
2018-06-02T19:46:53.830Z,3.67
2018-06-02T19:49:23.099Z,2.90
2018-06-02T19:51:53.161Z,3.40
2018-06-02T19:54:22.427Z,3.20
2018-06-02T19:56:52.467Z,3.00
2018-06-02T19:59:21.771Z,3.53
2018-06-02T20:01:51.770Z,3.63
2018-06-02T20:04:21.861Z,3.43
2018-06-02T20:06:51.911Z,3.30
2018-06-02T20:09:21.328Z,3.37
2018-06-02T20:11:50.627Z,3.90
2018-06-02T20:14:19.928Z,3.53
2018-06-02T20:16:49.318Z,3.43
2018-06-02T20:19:18.593Z,3.63
2018-06-02T20:21:48.715Z,4.10
2018-06-02T20:24:18.840Z,3.13
2018-06-02T20:26:48.926Z,3.43
2018-06-02T20:29:18.368Z,3.00
2018-06-02T20:31:48.570Z,3.13
2018-06-02T20:34:17.852Z,3.33
2018-06-02T20:36:47.167Z,3.20
2018-06-02T20:39:16.483Z,3.50
2018-06-02T20:41:45.827Z,2.90
2018-06-02T20:44:15.070Z,3.93
2018-06-02T20:46:45.103Z,3.47
2018-06-02T20:49:15.108Z,3.70
2018-06-02T20:51:44.427Z,3.10
2018-06-02T20:54:13.885Z,3.20
2018-06-02T20:56:43.155Z,3.50
2018-06-02T20:59:12.404Z,3.60
2018-06-02T21:01:41.729Z,3.00
2018-06-02T21:04:11.730Z,3.23
2018-06-02T21:06:41.172Z,3.17
2018-06-02T21:09:10.446Z,2.83
2018-06-02T21:11:40.606Z,3.03
2018-06-02T21:14:10.273Z,2.97
2018-06-02T21:16:40.409Z,2.70
2018-06-02T21:19:11.894Z,3.73
2018-06-02T21:21:42.153Z,3.63
2018-06-02T21:24:11.511Z,3.23
2018-06-02T21:26:40.842Z,3.10
2018-06-02T21:29:10.139Z,2.60
2018-06-02T21:31:40.048Z,3.17
2018-06-02T21:34:09.419Z,4.00
2018-06-02T21:36:38.757Z,2.73
2018-06-02T21:39:09.003Z,2.73
2018-06-02T21:41:38.636Z,3.77
2018-06-02T21:44:07.854Z,3.40
2018-06-02T21:46:37.195Z,3.80
2018-06-02T21:49:06.561Z,3.03
2018-06-02T21:51:36.012Z,2.57
2018-06-02T21:54:06.070Z,3.20
2018-06-02T21:56:35.346Z,3.30
2018-06-02T21:59:05.849Z,4.20
2018-06-02T22:01:36.616Z,2.60
2018-06-02T22:04:06.682Z,3.40
2018-06-02T22:06:36.019Z,3.20
2018-06-02T22:09:05.273Z,3.13
2018-06-02T22:11:34.556Z,3.90
2018-06-02T22:14:03.837Z,2.67
2018-06-02T22:16:33.902Z,2.97
2018-06-02T22:19:03.165Z,3.53
2018-06-02T22:21:32.448Z,3.00
2018-06-02T22:24:02.483Z,3.13
2018-06-02T22:26:31.773Z,2.73
2018-06-02T22:29:01.823Z,3.20
2018-06-02T22:31:31.199Z,3.47
2018-06-02T22:34:01.233Z,3.17
2018-06-02T22:36:30.474Z,2.73
2018-06-02T22:39:00.502Z,2.67
2018-06-02T22:41:29.823Z,2.23
2018-06-02T22:43:59.839Z,2.60
2018-06-02T22:46:29.955Z,2.97
2018-06-02T22:49:00.731Z,2.80
2018-06-02T22:51:47.921Z,3.03
2018-06-02T22:54:17.192Z,3.03
2018-06-02T22:56:47.471Z,2.77
2018-06-02T22:59:16.768Z,2.40
2018-06-02T23:01:46.069Z,3.07
2018-06-02T23:04:15.059Z,3.00
2018-06-02T23:06:45.291Z,2.63
2018-06-02T23:09:14.301Z,3.00
2018-06-02T23:11:43.736Z,3.37
2018-06-02T23:14:13.466Z,2.03
2018-06-02T23:16:42.571Z,2.90
2018-06-02T23:19:12.278Z,2.70
2018-06-02T23:21:41.371Z,3.20
2018-06-02T23:24:11.091Z,3.20
2018-06-02T23:26:40.821Z,2.70
2018-06-02T23:29:09.780Z,2.90
2018-06-02T23:31:39.506Z,2.50
2018-06-02T23:34:08.588Z,2.50
2018-06-02T23:36:37.570Z,3.00
2018-06-02T23:39:07.324Z,2.40
2018-06-02T23:41:36.404Z,2.80
2018-06-02T23:44:05.444Z,2.50
2018-06-02T23:46:34.427Z,2.47
2018-06-02T23:49:03.339Z,2.13
2018-06-02T23:51:32.587Z,2.40
2018-06-02T23:54:01.682Z,2.87
2018-06-02T23:56:30.651Z,2.87
2018-06-02T23:59:00.412Z,3.20
